sensor_id;sensor_type;location;lat;lon;timestamp;P1;durP1;ratioP1;P2;durP2;ratioP2
23800;SDS011;12081;48.614;10.226;2023-07-22T00:11:48;3.40;;;2.47;;
23800;SDS011;12081;48.614;10.226;2023-07-22T00:14:35;4.43;;;2.90;;
23800;SDS011;12081;48.614;10.226;2023-07-22T00:17:23;3.03;;;2.27;;
23800;SDS011;12081;48.614;10.226;2023-07-22T00:20:08;4.27;;;2.40;;
23800;SDS011;12081;48.614;10.226;2023-07-22T00:32:50;4.60;;;2.73;;
23800;SDS011;12081;48.614;10.226;2023-07-22T00:35:34;4.23;;;3.03;;
23800;SDS011;12081;48.614;10.226;2023-07-22T00:43:30;3.67;;;2.47;;
23800;SDS011;12081;48.614;10.226;2023-07-22T00:46:15;3.70;;;2.57;;
23800;SDS011;12081;48.614;10.226;2023-07-22T00:55:16;4.80;;;2.80;;
23800;SDS011;12081;48.614;10.226;2023-07-22T00:58:00;3.17;;;2.30;;
23800;SDS011;12081;48.614;10.226;2023-07-22T01:39:32;3.40;;;2.70;;
23800;SDS011;12081;48.614;10.226;2023-07-22T01:42:16;3.73;;;2.77;;
23800;SDS011;12081;48.614;10.226;2023-07-22T01:55:48;3.23;;;2.70;;
23800;SDS011;12081;48.614;10.226;2023-07-22T02:24:18;4.07;;;2.60;;
23800;SDS011;12081;48.614;10.226;2023-07-22T02:27:02;2.50;;;2.07;;
23800;SDS011;12081;48.614;10.226;2023-07-22T02:29:46;3.57;;;2.63;;
23800;SDS011;12081;48.614;10.226;2023-07-22T02:32:31;4.47;;;2.67;;
23800;SDS011;12081;48.614;10.226;2023-07-22T04:36:15;3.87;;;3.40;;
23800;SDS011;12081;48.614;10.226;2023-07-22T04:39:00;3.90;;;3.50;;
23800;SDS011;12081;48.614;10.226;2023-07-22T04:41:45;4.67;;;3.57;;
23800;SDS011;12081;48.614;10.226;2023-07-22T04:44:30;6.20;;;3.90;;
23800;SDS011;12081;48.614;10.226;2023-07-22T05:31:16;2.53;;;2.30;;
23800;SDS011;12081;48.614;10.226;2023-07-22T05:34:00;5.93;;;2.97;;
23800;SDS011;12081;48.614;10.226;2023-07-22T05:36:44;5.77;;;3.37;;
23800;SDS011;12081;48.614;10.226;2023-07-22T05:39:28;3.70;;;2.50;;
23800;SDS011;12081;48.614;10.226;2023-07-22T05:42:12;6.07;;;2.77;;
23800;SDS011;12081;48.614;10.226;2023-07-22T05:44:57;4.10;;;2.40;;
23800;SDS011;12081;48.614;10.226;2023-07-22T05:47:41;3.80;;;2.40;;
23800;SDS011;12081;48.614;10.226;2023-07-22T05:50:25;3.40;;;2.20;;
23800;SDS011;12081;48.614;10.226;2023-07-22T05:53:10;4.03;;;2.77;;
23800;SDS011;12081;48.614;10.226;2023-07-22T05:55:54;3.20;;;2.27;;
23800;SDS011;12081;48.614;10.226;2023-07-22T05:58:39;2.87;;;2.53;;
23800;SDS011;12081;48.614;10.226;2023-07-22T06:01:23;5.10;;;2.40;;
23800;SDS011;12081;48.614;10.226;2023-07-22T06:04:08;10.97;;;2.50;;
23800;SDS011;12081;48.614;10.226;2023-07-22T06:06:52;3.03;;;2.33;;
23800;SDS011;12081;48.614;10.226;2023-07-22T06:09:36;2.43;;;1.70;;
23800;SDS011;12081;48.614;10.226;2023-07-22T06:12:20;2.33;;;1.90;;
23800;SDS011;12081;48.614;10.226;2023-07-22T06:15:04;4.67;;;2.27;;
23800;SDS011;12081;48.614;10.226;2023-07-22T06:17:50;2.67;;;2.20;;
23800;SDS011;12081;48.614;10.226;2023-07-22T06:20:35;2.63;;;2.07;;
23800;SDS011;12081;48.614;10.226;2023-07-22T06:23:19;3.80;;;2.43;;
23800;SDS011;12081;48.614;10.226;2023-07-22T06:26:03;2.33;;;2.03;;
23800;SDS011;12081;48.614;10.226;2023-07-22T06:28:47;3.63;;;2.43;;
23800;SDS011;12081;48.614;10.226;2023-07-22T06:31:31;3.53;;;2.10;;
23800;SDS011;12081;48.614;10.226;2023-07-22T06:34:15;3.80;;;2.17;;
23800;SDS011;12081;48.614;10.226;2023-07-22T06:36:59;2.70;;;2.00;;
23800;SDS011;12081;48.614;10.226;2023-07-22T06:39:43;2.90;;;1.70;;
23800;SDS011;12081;48.614;10.226;2023-07-22T06:42:28;3.37;;;2.17;;
23800;SDS011;12081;48.614;10.226;2023-07-22T06:45:11;2.30;;;1.83;;
23800;SDS011;12081;48.614;10.226;2023-07-22T06:47:56;3.17;;;1.93;;
23800;SDS011;12081;48.614;10.226;2023-07-22T06:50:40;3.50;;;1.97;;
23800;SDS011;12081;48.614;10.226;2023-07-22T06:53:30;3.40;;;1.80;;
23800;SDS011;12081;48.614;10.226;2023-07-22T06:56:14;2.20;;;1.80;;
23800;SDS011;12081;48.614;10.226;2023-07-22T06:58:58;2.93;;;1.67;;
23800;SDS011;12081;48.614;10.226;2023-07-22T07:01:43;3.77;;;1.73;;
23800;SDS011;12081;48.614;10.226;2023-07-22T07:04:27;2.17;;;1.87;;
23800;SDS011;12081;48.614;10.226;2023-07-22T07:07:12;2.97;;;2.10;;
23800;SDS011;12081;48.614;10.226;2023-07-22T07:09:56;2.07;;;1.70;;
23800;SDS011;12081;48.614;10.226;2023-07-22T07:12:40;3.60;;;1.83;;
23800;SDS011;12081;48.614;10.226;2023-07-22T07:15:24;2.60;;;1.50;;
23800;SDS011;12081;48.614;10.226;2023-07-22T07:18:08;3.10;;;2.23;;
23800;SDS011;12081;48.614;10.226;2023-07-22T07:20:52;2.38;;;1.92;;
23800;SDS011;12081;48.614;10.226;2023-07-22T07:23:36;1.92;;;1.55;;
23800;SDS011;12081;48.614;10.226;2023-07-22T07:26:20;2.63;;;1.88;;
23800;SDS011;12081;48.614;10.226;2023-07-22T07:29:05;2.42;;;2.00;;
23800;SDS011;12081;48.614;10.226;2023-07-22T07:31:49;2.90;;;1.75;;
23800;SDS011;12081;48.614;10.226;2023-07-22T07:34:33;3.45;;;1.70;;
23800;SDS011;12081;48.614;10.226;2023-07-22T07:37:17;2.78;;;2.00;;
23800;SDS011;12081;48.614;10.226;2023-07-22T07:40:02;1.30;;;1.20;;
23800;SDS011;12081;48.614;10.226;2023-07-22T07:42:47;3.08;;;2.05;;
23800;SDS011;12081;48.614;10.226;2023-07-22T07:45:31;2.85;;;1.90;;
23800;SDS011;12081;48.614;10.226;2023-07-22T07:48:14;1.98;;;1.77;;
23800;SDS011;12081;48.614;10.226;2023-07-22T07:50:59;3.53;;;1.88;;
23800;SDS011;12081;48.614;10.226;2023-07-22T07:53:43;2.08;;;1.88;;
23800;SDS011;12081;48.614;10.226;2023-07-22T07:56:27;2.30;;;1.70;;
23800;SDS011;12081;48.614;10.226;2023-07-22T07:59:12;3.33;;;1.48;;
23800;SDS011;12081;48.614;10.226;2023-07-22T08:01:56;2.75;;;2.03;;
23800;SDS011;12081;48.614;10.226;2023-07-22T08:04:41;2.75;;;1.83;;
23800;SDS011;12081;48.614;10.226;2023-07-22T08:07:25;2.85;;;1.73;;
23800;SDS011;12081;48.614;10.226;2023-07-22T08:10:09;3.40;;;1.95;;
23800;SDS011;12081;48.614;10.226;2023-07-22T08:12:54;2.13;;;1.70;;
23800;SDS011;12081;48.614;10.226;2023-07-22T08:15:38;2.42;;;1.55;;
23800;SDS011;12081;48.614;10.226;2023-07-22T08:18:23;2.95;;;1.60;;
23800;SDS011;12081;48.614;10.226;2023-07-22T08:21:08;1.75;;;1.40;;
23800;SDS011;12081;48.614;10.226;2023-07-22T08:23:52;4.75;;;1.60;;
23800;SDS011;12081;48.614;10.226;2023-07-22T08:26:37;3.05;;;1.70;;
23800;SDS011;12081;48.614;10.226;2023-07-22T08:29:22;1.92;;;1.80;;
23800;SDS011;12081;48.614;10.226;2023-07-22T08:32:06;1.77;;;1.52;;
23800;SDS011;12081;48.614;10.226;2023-07-22T08:34:50;2.70;;;1.70;;
23800;SDS011;12081;48.614;10.226;2023-07-22T08:37:35;4.78;;;1.50;;
23800;SDS011;12081;48.614;10.226;2023-07-22T08:40:20;4.38;;;1.60;;
23800;SDS011;12081;48.614;10.226;2023-07-22T08:43:06;4.20;;;1.70;;
23800;SDS011;12081;48.614;10.226;2023-07-22T08:45:52;4.32;;;1.60;;
23800;SDS011;12081;48.614;10.226;2023-07-22T08:48:38;5.13;;;1.60;;
23800;SDS011;12081;48.614;10.226;2023-07-22T08:51:26;2.85;;;1.10;;
23800;SDS011;12081;48.614;10.226;2023-07-22T08:54:14;2.85;;;1.13;;
23800;SDS011;12081;48.614;10.226;2023-07-22T08:56:59;3.83;;;1.30;;
23800;SDS011;12081;48.614;10.226;2023-07-22T08:59:44;1.48;;;1.30;;
23800;SDS011;12081;48.614;10.226;2023-07-22T09:02:29;3.15;;;1.52;;
23800;SDS011;12081;48.614;10.226;2023-07-22T09:05:14;1.73;;;1.20;;
23800;SDS011;12081;48.614;10.226;2023-07-22T09:08:01;1.55;;;1.45;;
23800;SDS011;12081;48.614;10.226;2023-07-22T09:10:47;1.85;;;1.20;;
23800;SDS011;12081;48.614;10.226;2023-07-22T09:13:32;2.03;;;1.40;;
23800;SDS011;12081;48.614;10.226;2023-07-22T09:16:19;2.30;;;1.27;;
23800;SDS011;12081;48.614;10.226;2023-07-22T09:19:05;2.50;;;1.45;;
23800;SDS011;12081;48.614;10.226;2023-07-22T09:21:49;2.35;;;1.25;;
23800;SDS011;12081;48.614;10.226;2023-07-22T09:24:34;3.38;;;1.45;;
23800;SDS011;12081;48.614;10.226;2023-07-22T09:27:40;1.67;;;1.30;;
23800;SDS011;12081;48.614;10.226;2023-07-22T09:30:27;1.77;;;1.25;;
23800;SDS011;12081;48.614;10.226;2023-07-22T09:33:22;2.95;;;1.45;;
23800;SDS011;12081;48.614;10.226;2023-07-22T09:36:07;1.40;;;1.20;;
23800;SDS011;12081;48.614;10.226;2023-07-22T09:38:59;3.33;;;1.58;;
23800;SDS011;12081;48.614;10.226;2023-07-22T09:41:46;3.50;;;1.20;;
23800;SDS011;12081;48.614;10.226;2023-07-22T09:44:31;1.48;;;1.20;;
23800;SDS011;12081;48.614;10.226;2023-07-22T09:47:21;1.58;;;1.20;;
23800;SDS011;12081;48.614;10.226;2023-07-22T09:50:05;1.40;;;1.10;;
23800;SDS011;12081;48.614;10.226;2023-07-22T09:52:54;1.83;;;1.27;;
23800;SDS011;12081;48.614;10.226;2023-07-22T09:55:41;3.30;;;1.35;;
23800;SDS011;12081;48.614;10.226;2023-07-22T09:58:26;6.93;;;1.60;;
23800;SDS011;12081;48.614;10.226;2023-07-22T10:01:13;1.63;;;1.30;;
23800;SDS011;12081;48.614;10.226;2023-07-22T10:04:00;1.60;;;1.15;;
23800;SDS011;12081;48.614;10.226;2023-07-22T10:06:47;1.73;;;1.40;;
23800;SDS011;12081;48.614;10.226;2023-07-22T10:09:32;1.42;;;1.23;;
23800;SDS011;12081;48.614;10.226;2023-07-22T10:12:20;1.20;;;1.00;;
23800;SDS011;12081;48.614;10.226;2023-07-22T10:15:05;3.50;;;1.38;;
23800;SDS011;12081;48.614;10.226;2023-07-22T10:17:51;1.40;;;1.30;;
23800;SDS011;12081;48.614;10.226;2023-07-22T10:20:38;1.33;;;1.20;;
23800;SDS011;12081;48.614;10.226;2023-07-22T10:23:23;1.70;;;1.40;;
23800;SDS011;12081;48.614;10.226;2023-07-22T10:29:50;2.50;;;1.60;;
23800;SDS011;12081;48.614;10.226;2023-07-22T10:36:18;1.65;;;1.55;;
23800;SDS011;12081;48.614;10.226;2023-07-22T10:39:03;1.70;;;1.50;;
23800;SDS011;12081;48.614;10.226;2023-07-22T10:41:48;1.65;;;1.50;;
23800;SDS011;12081;48.614;10.226;2023-07-22T10:44:35;1.77;;;1.45;;
23800;SDS011;12081;48.614;10.226;2023-07-22T10:47:31;2.28;;;1.40;;
23800;SDS011;12081;48.614;10.226;2023-07-22T10:50:16;1.92;;;1.52;;
23800;SDS011;12081;48.614;10.226;2023-07-22T10:53:03;1.75;;;1.20;;
23800;SDS011;12081;48.614;10.226;2023-07-22T11:01:36;1.50;;;1.30;;
23800;SDS011;12081;48.614;10.226;2023-07-22T11:07:16;1.77;;;1.33;;
23800;SDS011;12081;48.614;10.226;2023-07-22T11:10:18;1.75;;;1.50;;
23800;SDS011;12081;48.614;10.226;2023-07-22T11:13:03;1.65;;;1.25;;
23800;SDS011;12081;48.614;10.226;2023-07-22T11:15:47;2.05;;;1.45;;
23800;SDS011;12081;48.614;10.226;2023-07-22T11:18:38;1.67;;;1.33;;
23800;SDS011;12081;48.614;10.226;2023-07-22T11:21:24;3.13;;;1.35;;
23800;SDS011;12081;48.614;10.226;2023-07-22T11:24:09;2.78;;;1.58;;
23800;SDS011;12081;48.614;10.226;2023-07-22T11:26:53;2.97;;;1.50;;
23800;SDS011;12081;48.614;10.226;2023-07-22T11:29:38;1.63;;;1.38;;
23800;SDS011;12081;48.614;10.226;2023-07-22T11:32:24;1.85;;;1.20;;
23800;SDS011;12081;48.614;10.226;2023-07-22T11:35:09;3.38;;;1.20;;
23800;SDS011;12081;48.614;10.226;2023-07-22T11:38:03;1.38;;;1.15;;
23800;SDS011;12081;48.614;10.226;2023-07-22T11:40:48;5.72;;;1.80;;
23800;SDS011;12081;48.614;10.226;2023-07-22T11:43:33;1.50;;;1.40;;
23800;SDS011;12081;48.614;10.226;2023-07-22T11:46:17;2.53;;;1.40;;
23800;SDS011;12081;48.614;10.226;2023-07-22T11:49:02;2.45;;;1.33;;
23800;SDS011;12081;48.614;10.226;2023-07-22T11:51:46;3.05;;;1.50;;
23800;SDS011;12081;48.614;10.226;2023-07-22T11:54:32;2.05;;;1.38;;
23800;SDS011;12081;48.614;10.226;2023-07-22T11:57:19;2.53;;;1.20;;
23800;SDS011;12081;48.614;10.226;2023-07-22T12:00:07;1.60;;;1.50;;
23800;SDS011;12081;48.614;10.226;2023-07-22T12:02:53;2.30;;;1.30;;
23800;SDS011;12081;48.614;10.226;2023-07-22T12:05:41;1.88;;;1.50;;
23800;SDS011;12081;48.614;10.226;2023-07-22T12:08:25;2.03;;;1.25;;
23800;SDS011;12081;48.614;10.226;2023-07-22T12:11:15;2.20;;;1.40;;
23800;SDS011;12081;48.614;10.226;2023-07-22T12:16:55;2.00;;;1.25;;
23800;SDS011;12081;48.614;10.226;2023-07-22T12:19:50;3.13;;;1.20;;
23800;SDS011;12081;48.614;10.226;2023-07-22T12:22:36;4.57;;;1.50;;
23800;SDS011;12081;48.614;10.226;2023-07-22T12:25:21;1.77;;;1.63;;
23800;SDS011;12081;48.614;10.226;2023-07-22T12:28:06;1.73;;;1.63;;
23800;SDS011;12081;48.614;10.226;2023-07-22T12:30:51;3.00;;;1.40;;
23800;SDS011;12081;48.614;10.226;2023-07-22T12:33:36;5.95;;;1.70;;
23800;SDS011;12081;48.614;10.226;2023-07-22T12:36:22;14.15;;;2.58;;
23800;SDS011;12081;48.614;10.226;2023-07-22T12:39:07;5.25;;;1.58;;
23800;SDS011;12081;48.614;10.226;2023-07-22T12:41:51;21.60;;;4.82;;
23800;SDS011;12081;48.614;10.226;2023-07-22T12:44:36;20.55;;;3.28;;
23800;SDS011;12081;48.614;10.226;2023-07-22T12:47:20;2.53;;;1.30;;
23800;SDS011;12081;48.614;10.226;2023-07-22T12:50:05;12.10;;;1.70;;
23800;SDS011;12081;48.614;10.226;2023-07-22T12:52:53;7.32;;;1.70;;
23800;SDS011;12081;48.614;10.226;2023-07-22T12:55:38;2.50;;;1.60;;
23800;SDS011;12081;48.614;10.226;2023-07-22T12:58:23;2.15;;;1.40;;
23800;SDS011;12081;48.614;10.226;2023-07-22T13:01:07;3.60;;;1.52;;
23800;SDS011;12081;48.614;10.226;2023-07-22T13:03:52;1.77;;;1.23;;
23800;SDS011;12081;48.614;10.226;2023-07-22T13:06:36;2.72;;;1.75;;
23800;SDS011;12081;48.614;10.226;2023-07-22T13:09:21;4.93;;;1.67;;
23800;SDS011;12081;48.614;10.226;2023-07-22T13:12:06;5.32;;;1.70;;
23800;SDS011;12081;48.614;10.226;2023-07-22T13:14:51;2.70;;;1.30;;
23800;SDS011;12081;48.614;10.226;2023-07-22T13:17:35;2.35;;;1.60;;
23800;SDS011;12081;48.614;10.226;2023-07-22T13:20:20;2.00;;;1.73;;
23800;SDS011;12081;48.614;10.226;2023-07-22T13:23:05;1.95;;;1.75;;
23800;SDS011;12081;48.614;10.226;2023-07-22T13:25:49;2.70;;;1.83;;
23800;SDS011;12081;48.614;10.226;2023-07-22T13:28:34;3.42;;;1.67;;
23800;SDS011;12081;48.614;10.226;2023-07-22T13:31:19;1.60;;;1.50;;
23800;SDS011;12081;48.614;10.226;2023-07-22T13:37:45;5.55;;;1.92;;
23800;SDS011;12081;48.614;10.226;2023-07-22T13:40:30;2.70;;;1.40;;
23800;SDS011;12081;48.614;10.226;2023-07-22T13:46:55;2.03;;;1.70;;
23800;SDS011;12081;48.614;10.226;2023-07-22T13:49:40;1.85;;;1.52;;
23800;SDS011;12081;48.614;10.226;2023-07-22T13:52:25;1.90;;;1.75;;
23800;SDS011;12081;48.614;10.226;2023-07-22T13:55:10;1.73;;;1.50;;
23800;SDS011;12081;48.614;10.226;2023-07-22T14:01:36;3.63;;;1.52;;
23800;SDS011;12081;48.614;10.226;2023-07-22T14:08:03;3.65;;;1.80;;
23800;SDS011;12081;48.614;10.226;2023-07-22T14:14:28;2.25;;;1.45;;
23800;SDS011;12081;48.614;10.226;2023-07-22T14:17:13;3.72;;;1.75;;
23800;SDS011;12081;48.614;10.226;2023-07-22T14:19:58;2.65;;;1.75;;
23800;SDS011;12081;48.614;10.226;2023-07-22T14:22:42;2.75;;;1.63;;
23800;SDS011;12081;48.614;10.226;2023-07-22T14:29:08;5.15;;;2.08;;
23800;SDS011;12081;48.614;10.226;2023-07-22T14:31:52;2.15;;;1.77;;
23800;SDS011;12081;48.614;10.226;2023-07-22T14:34:39;5.75;;;1.98;;
23800;SDS011;12081;48.614;10.226;2023-07-22T14:37:24;2.92;;;1.95;;
23800;SDS011;12081;48.614;10.226;2023-07-22T14:40:09;2.83;;;1.98;;
23800;SDS011;12081;48.614;10.226;2023-07-22T14:42:54;3.50;;;2.05;;
23800;SDS011;12081;48.614;10.226;2023-07-22T14:45:39;2.17;;;1.77;;
23800;SDS011;12081;48.614;10.226;2023-07-22T14:48:24;2.90;;;2.00;;
23800;SDS011;12081;48.614;10.226;2023-07-22T14:51:08;4.53;;;2.05;;
23800;SDS011;12081;48.614;10.226;2023-07-22T14:53:53;2.25;;;1.67;;
23800;SDS011;12081;48.614;10.226;2023-07-22T14:56:38;4.05;;;2.03;;
23800;SDS011;12081;48.614;10.226;2023-07-22T14:59:22;3.95;;;2.10;;
23800;SDS011;12081;48.614;10.226;2023-07-22T15:02:08;2.38;;;2.03;;
23800;SDS011;12081;48.614;10.226;2023-07-22T15:04:53;2.72;;;1.90;;
23800;SDS011;12081;48.614;10.226;2023-07-22T15:07:37;1.83;;;1.65;;
23800;SDS011;12081;48.614;10.226;2023-07-22T15:10:22;2.30;;;1.88;;
23800;SDS011;12081;48.614;10.226;2023-07-22T15:13:06;9.25;;;2.85;;
23800;SDS011;12081;48.614;10.226;2023-07-22T15:15:52;4.95;;;2.30;;
23800;SDS011;12081;48.614;10.226;2023-07-22T15:18:41;4.70;;;1.80;;
23800;SDS011;12081;48.614;10.226;2023-07-22T15:21:26;2.90;;;1.77;;
23800;SDS011;12081;48.614;10.226;2023-07-22T15:24:11;5.30;;;1.98;;
23800;SDS011;12081;48.614;10.226;2023-07-22T15:26:56;4.32;;;2.08;;
23800;SDS011;12081;48.614;10.226;2023-07-22T15:29:40;2.13;;;1.77;;
23800;SDS011;12081;48.614;10.226;2023-07-22T15:32:25;4.20;;;2.20;;
23800;SDS011;12081;48.614;10.226;2023-07-22T15:35:09;4.80;;;1.80;;
23800;SDS011;12081;48.614;10.226;2023-07-22T15:37:54;3.53;;;2.03;;
23800;SDS011;12081;48.614;10.226;2023-07-22T15:40:38;3.67;;;2.00;;
23800;SDS011;12081;48.614;10.226;2023-07-22T15:43:22;4.57;;;2.00;;
23800;SDS011;12081;48.614;10.226;2023-07-22T15:46:07;4.43;;;2.35;;
23800;SDS011;12081;48.614;10.226;2023-07-22T15:48:52;5.75;;;2.08;;
23800;SDS011;12081;48.614;10.226;2023-07-22T15:51:36;5.40;;;2.35;;
23800;SDS011;12081;48.614;10.226;2023-07-22T15:54:21;2.47;;;2.00;;
23800;SDS011;12081;48.614;10.226;2023-07-22T15:57:06;2.95;;;2.15;;
23800;SDS011;12081;48.614;10.226;2023-07-22T15:59:50;2.45;;;2.25;;
23800;SDS011;12081;48.614;10.226;2023-07-22T16:02:35;2.50;;;2.20;;
23800;SDS011;12081;48.614;10.226;2023-07-22T16:05:20;7.97;;;2.13;;
23800;SDS011;12081;48.614;10.226;2023-07-22T16:08:05;2.40;;;2.20;;
23800;SDS011;12081;48.614;10.226;2023-07-22T16:10:50;3.53;;;2.65;;
23800;SDS011;12081;48.614;10.226;2023-07-22T16:13:34;3.45;;;2.60;;
23800;SDS011;12081;48.614;10.226;2023-07-22T16:16:20;3.25;;;2.38;;
23800;SDS011;12081;48.614;10.226;2023-07-22T16:19:05;3.55;;;2.35;;
23800;SDS011;12081;48.614;10.226;2023-07-22T16:21:49;3.78;;;2.22;;
23800;SDS011;12081;48.614;10.226;2023-07-22T16:24:34;4.82;;;2.28;;
23800;SDS011;12081;48.614;10.226;2023-07-22T16:30:59;2.72;;;2.50;;
23800;SDS011;12081;48.614;10.226;2023-07-22T16:33:43;2.97;;;2.47;;
23800;SDS011;12081;48.614;10.226;2023-07-22T16:36:28;8.70;;;2.58;;
23800;SDS011;12081;48.614;10.226;2023-07-22T16:39:13;3.40;;;3.03;;
23800;SDS011;12081;48.614;10.226;2023-07-22T16:41:58;4.22;;;3.15;;
23800;SDS011;12081;48.614;10.226;2023-07-22T16:44:42;3.20;;;2.78;;
23800;SDS011;12081;48.614;10.226;2023-07-22T16:51:08;3.92;;;2.70;;
23800;SDS011;12081;48.614;10.226;2023-07-22T16:53:53;4.70;;;2.80;;
23800;SDS011;12081;48.614;10.226;2023-07-22T16:56:37;3.92;;;2.58;;
23800;SDS011;12081;48.614;10.226;2023-07-22T16:59:22;3.40;;;2.70;;
23800;SDS011;12081;48.614;10.226;2023-07-22T17:02:07;3.75;;;2.75;;
23800;SDS011;12081;48.614;10.226;2023-07-22T17:04:51;2.92;;;2.63;;
23800;SDS011;12081;48.614;10.226;2023-07-22T17:07:38;3.83;;;2.80;;
23800;SDS011;12081;48.614;10.226;2023-07-22T17:10:26;4.30;;;2.75;;
23800;SDS011;12081;48.614;10.226;2023-07-22T17:13:11;4.00;;;3.08;;
23800;SDS011;12081;48.614;10.226;2023-07-22T17:15:55;2.88;;;2.58;;
23800;SDS011;12081;48.614;10.226;2023-07-22T17:18:40;6.72;;;3.45;;
23800;SDS011;12081;48.614;10.226;2023-07-22T17:21:24;3.75;;;3.00;;
23800;SDS011;12081;48.614;10.226;2023-07-22T17:24:09;5.78;;;3.17;;
23800;SDS011;12081;48.614;10.226;2023-07-22T17:26:54;3.88;;;2.85;;
23800;SDS011;12081;48.614;10.226;2023-07-22T17:29:38;4.10;;;3.08;;
23800;SDS011;12081;48.614;10.226;2023-07-22T17:32:23;4.57;;;2.78;;
23800;SDS011;12081;48.614;10.226;2023-07-22T17:35:07;3.88;;;3.25;;
23800;SDS011;12081;48.614;10.226;2023-07-22T17:37:52;5.30;;;3.05;;
23800;SDS011;12081;48.614;10.226;2023-07-22T17:40:37;3.47;;;2.75;;
23800;SDS011;12081;48.614;10.226;2023-07-22T17:43:23;3.78;;;2.90;;
23800;SDS011;12081;48.614;10.226;2023-07-22T17:46:07;4.30;;;2.90;;
23800;SDS011;12081;48.614;10.226;2023-07-22T17:48:52;6.22;;;2.85;;
23800;SDS011;12081;48.614;10.226;2023-07-22T17:51:36;3.78;;;2.90;;
23800;SDS011;12081;48.614;10.226;2023-07-22T17:54:21;9.05;;;3.70;;
23800;SDS011;12081;48.614;10.226;2023-07-22T17:57:05;3.55;;;2.72;;
23800;SDS011;12081;48.614;10.226;2023-07-22T17:59:50;4.13;;;3.00;;
23800;SDS011;12081;48.614;10.226;2023-07-22T18:02:35;5.13;;;3.40;;
23800;SDS011;12081;48.614;10.226;2023-07-22T18:05:21;5.10;;;3.15;;
23800;SDS011;12081;48.614;10.226;2023-07-22T18:08:09;5.53;;;3.10;;
23800;SDS011;12081;48.614;10.226;2023-07-22T18:10:53;3.55;;;3.03;;
23800;SDS011;12081;48.614;10.226;2023-07-22T18:13:38;6.03;;;3.00;;
23800;SDS011;12081;48.614;10.226;2023-07-22T18:16:23;4.30;;;2.90;;
23800;SDS011;12081;48.614;10.226;2023-07-22T18:19:07;3.88;;;3.05;;
23800;SDS011;12081;48.614;10.226;2023-07-22T18:21:52;4.40;;;3.33;;
23800;SDS011;12081;48.614;10.226;2023-07-22T18:24:36;6.45;;;3.10;;
23800;SDS011;12081;48.614;10.226;2023-07-22T18:27:21;4.28;;;2.85;;
23800;SDS011;12081;48.614;10.226;2023-07-22T18:30:05;19.20;;;4.05;;
23800;SDS011;12081;48.614;10.226;2023-07-22T18:32:50;5.03;;;3.03;;
23800;SDS011;12081;48.614;10.226;2023-07-22T18:35:35;27.73;;;4.63;;
23800;SDS011;12081;48.614;10.226;2023-07-22T18:38:20;7.63;;;3.22;;
23800;SDS011;12081;48.614;10.226;2023-07-22T18:41:04;3.50;;;3.10;;
23800;SDS011;12081;48.614;10.226;2023-07-22T18:43:49;32.75;;;5.43;;
23800;SDS011;12081;48.614;10.226;2023-07-22T18:46:33;16.27;;;3.70;;
23800;SDS011;12081;48.614;10.226;2023-07-22T18:49:18;14.05;;;3.63;;
23800;SDS011;12081;48.614;10.226;2023-07-22T18:52:03;6.00;;;3.10;;
23800;SDS011;12081;48.614;10.226;2023-07-22T18:54:48;4.40;;;2.80;;
23800;SDS011;12081;48.614;10.226;2023-07-22T18:57:33;34.55;;;5.47;;
23800;SDS011;12081;48.614;10.226;2023-07-22T19:00:17;7.03;;;2.95;;
23800;SDS011;12081;48.614;10.226;2023-07-22T19:03:02;23.70;;;4.00;;
23800;SDS011;12081;48.614;10.226;2023-07-22T19:05:49;12.63;;;3.03;;
23800;SDS011;12081;48.614;10.226;2023-07-22T19:08:35;3.38;;;2.65;;
23800;SDS011;12081;48.614;10.226;2023-07-22T19:11:20;6.75;;;2.95;;
23800;SDS011;12081;48.614;10.226;2023-07-22T19:14:05;5.73;;;3.20;;
23800;SDS011;12081;48.614;10.226;2023-07-22T19:16:53;5.63;;;2.83;;
23800;SDS011;12081;48.614;10.226;2023-07-22T19:19:39;3.85;;;2.90;;
23800;SDS011;12081;48.614;10.226;2023-07-22T19:22:25;5.78;;;3.33;;
23800;SDS011;12081;48.614;10.226;2023-07-22T19:25:10;4.03;;;3.08;;
23800;SDS011;12081;48.614;10.226;2023-07-22T19:27:55;4.22;;;3.13;;
23800;SDS011;12081;48.614;10.226;2023-07-22T19:30:40;3.55;;;2.70;;
23800;SDS011;12081;48.614;10.226;2023-07-22T19:33:24;5.22;;;2.75;;
23800;SDS011;12081;48.614;10.226;2023-07-22T19:36:10;4.13;;;2.67;;
23800;SDS011;12081;48.614;10.226;2023-07-22T19:38:57;5.40;;;2.90;;
23800;SDS011;12081;48.614;10.226;2023-07-22T19:41:42;5.60;;;3.15;;
23800;SDS011;12081;48.614;10.226;2023-07-22T19:44:26;3.93;;;2.87;;
23800;SDS011;12081;48.614;10.226;2023-07-22T19:47:11;6.15;;;2.88;;
23800;SDS011;12081;48.614;10.226;2023-07-22T19:49:56;3.78;;;2.70;;
23800;SDS011;12081;48.614;10.226;2023-07-22T19:52:40;3.23;;;2.83;;
23800;SDS011;12081;48.614;10.226;2023-07-22T19:55:25;4.10;;;3.07;;
23800;SDS011;12081;48.614;10.226;2023-07-22T19:58:09;4.43;;;3.10;;
23800;SDS011;12081;48.614;10.226;2023-07-22T20:00:54;3.97;;;2.87;;
23800;SDS011;12081;48.614;10.226;2023-07-22T20:03:43;5.53;;;2.77;;
23800;SDS011;12081;48.614;10.226;2023-07-22T20:06:27;4.57;;;2.77;;
23800;SDS011;12081;48.614;10.226;2023-07-22T20:09:12;4.53;;;2.60;;
23800;SDS011;12081;48.614;10.226;2023-07-22T20:11:56;3.80;;;2.73;;
23800;SDS011;12081;48.614;10.226;2023-07-22T20:14:41;4.20;;;3.03;;
23800;SDS011;12081;48.614;10.226;2023-07-22T20:17:25;6.03;;;3.10;;
23800;SDS011;12081;48.614;10.226;2023-07-22T20:20:10;3.73;;;2.43;;
23800;SDS011;12081;48.614;10.226;2023-07-22T20:22:55;3.43;;;2.87;;
23800;SDS011;12081;48.614;10.226;2023-07-22T20:25:40;3.50;;;2.50;;
23800;SDS011;12081;48.614;10.226;2023-07-22T20:28:24;5.93;;;2.73;;
23800;SDS011;12081;48.614;10.226;2023-07-22T20:31:10;3.97;;;3.13;;
23800;SDS011;12081;48.614;10.226;2023-07-22T20:33:58;4.77;;;3.20;;
23800;SDS011;12081;48.614;10.226;2023-07-22T20:36:45;4.43;;;3.17;;
23800;SDS011;12081;48.614;10.226;2023-07-22T20:39:30;4.60;;;3.07;;
23800;SDS011;12081;48.614;10.226;2023-07-22T20:42:15;5.60;;;3.07;;
23800;SDS011;12081;48.614;10.226;2023-07-22T20:44:59;5.43;;;3.27;;
23800;SDS011;12081;48.614;10.226;2023-07-22T20:47:44;5.00;;;3.43;;
23800;SDS011;12081;48.614;10.226;2023-07-22T20:50:29;4.23;;;2.70;;
23800;SDS011;12081;48.614;10.226;2023-07-22T20:53:13;4.10;;;2.90;;
23800;SDS011;12081;48.614;10.226;2023-07-22T20:55:58;3.30;;;2.53;;
23800;SDS011;12081;48.614;10.226;2023-07-22T20:58:43;4.53;;;2.70;;
23800;SDS011;12081;48.614;10.226;2023-07-22T21:01:28;3.47;;;3.10;;
23800;SDS011;12081;48.614;10.226;2023-07-22T21:04:12;3.73;;;2.80;;
23800;SDS011;12081;48.614;10.226;2023-07-22T21:06:58;4.87;;;3.13;;
23800;SDS011;12081;48.614;10.226;2023-07-22T21:09:45;5.13;;;2.83;;
23800;SDS011;12081;48.614;10.226;2023-07-22T21:12:29;4.00;;;3.00;;
23800;SDS011;12081;48.614;10.226;2023-07-22T21:15:14;3.63;;;3.00;;
23800;SDS011;12081;48.614;10.226;2023-07-22T21:18:00;5.57;;;3.57;;
23800;SDS011;12081;48.614;10.226;2023-07-22T21:20:45;5.23;;;2.93;;
23800;SDS011;12081;48.614;10.226;2023-07-22T21:23:30;10.73;;;3.20;;
23800;SDS011;12081;48.614;10.226;2023-07-22T21:26:14;4.30;;;3.10;;
23800;SDS011;12081;48.614;10.226;2023-07-22T21:28:59;5.40;;;3.00;;
23800;SDS011;12081;48.614;10.226;2023-07-22T21:31:44;4.43;;;3.00;;
23800;SDS011;12081;48.614;10.226;2023-07-22T21:34:28;4.87;;;3.50;;
23800;SDS011;12081;48.614;10.226;2023-07-22T21:37:12;11.23;;;8.00;;
23800;SDS011;12081;48.614;10.226;2023-07-22T21:39:56;10.07;;;6.33;;